sensor_id;sensor_type;location;lat;lon;timestamp;P1;durP1;ratioP1;P2;durP2;ratioP2
52248;SDS011;38541;48.130;8.378;2024-01-30T00:00:44;1.83;;;1.50;;
52248;SDS011;38541;48.130;8.378;2024-01-30T00:03:10;1.30;;;1.20;;
52248;SDS011;38541;48.130;8.378;2024-01-30T00:05:37;1.55;;;1.45;;
52248;SDS011;38541;48.130;8.378;2024-01-30T00:08:03;1.20;;;1.10;;
52248;SDS011;38541;48.130;8.378;2024-01-30T00:10:30;1.48;;;1.40;;
52248;SDS011;38541;48.130;8.378;2024-01-30T00:12:57;1.58;;;1.48;;
52248;SDS011;38541;48.130;8.378;2024-01-30T00:15:23;1.63;;;1.50;;
52248;SDS011;38541;48.130;8.378;2024-01-30T00:17:50;1.73;;;1.63;;
52248;SDS011;38541;48.130;8.378;2024-01-30T00:20:19;1.27;;;1.27;;
52248;SDS011;38541;48.130;8.378;2024-01-30T00:22:46;1.80;;;1.70;;
52248;SDS011;38541;48.130;8.378;2024-01-30T00:25:13;1.60;;;1.50;;
52248;SDS011;38541;48.130;8.378;2024-01-30T00:27:39;1.65;;;1.55;;
52248;SDS011;38541;48.130;8.378;2024-01-30T00:30:06;1.52;;;1.42;;
52248;SDS011;38541;48.130;8.378;2024-01-30T00:32:33;1.65;;;1.55;;
52248;SDS011;38541;48.130;8.378;2024-01-30T00:34:59;2.00;;;1.80;;
52248;SDS011;38541;48.130;8.378;2024-01-30T00:37:26;1.80;;;1.48;;
52248;SDS011;38541;48.130;8.378;2024-01-30T00:39:53;1.73;;;1.63;;
52248;SDS011;38541;48.130;8.378;2024-01-30T00:42:19;2.60;;;2.00;;
52248;SDS011;38541;48.130;8.378;2024-01-30T00:44:45;2.22;;;2.00;;
52248;SDS011;38541;48.130;8.378;2024-01-30T00:47:12;1.98;;;1.77;;
52248;SDS011;38541;48.130;8.378;2024-01-30T00:49:38;1.73;;;1.63;;
52248;SDS011;38541;48.130;8.378;2024-01-30T00:52:05;1.63;;;1.52;;
52248;SDS011;38541;48.130;8.378;2024-01-30T00:54:32;1.15;;;1.15;;
52248;SDS011;38541;48.130;8.378;2024-01-30T00:56:58;1.73;;;1.60;;
52248;SDS011;38541;48.130;8.378;2024-01-30T00:59:25;1.75;;;1.65;;
52248;SDS011;38541;48.130;8.378;2024-01-30T01:01:51;1.95;;;1.80;;
52248;SDS011;38541;48.130;8.378;2024-01-30T01:04:18;1.75;;;1.65;;
52248;SDS011;38541;48.130;8.378;2024-01-30T01:06:45;1.80;;;1.70;;
52248;SDS011;38541;48.130;8.378;2024-01-30T01:09:11;1.73;;;1.63;;
52248;SDS011;38541;48.130;8.378;2024-01-30T01:11:38;1.60;;;1.50;;
52248;SDS011;38541;48.130;8.378;2024-01-30T01:14:05;2.05;;;1.95;;
52248;SDS011;38541;48.130;8.378;2024-01-30T01:16:32;1.92;;;1.83;;
52248;SDS011;38541;48.130;8.378;2024-01-30T01:18:59;1.60;;;1.50;;
52248;SDS011;38541;48.130;8.378;2024-01-30T01:21:26;1.90;;;1.80;;
52248;SDS011;38541;48.130;8.378;2024-01-30T01:23:53;2.10;;;1.50;;
52248;SDS011;38541;48.130;8.378;2024-01-30T01:26:20;1.77;;;1.67;;
52248;SDS011;38541;48.130;8.378;2024-01-30T01:28:47;2.33;;;2.00;;
52248;SDS011;38541;48.130;8.378;2024-01-30T01:31:14;2.05;;;1.90;;
52248;SDS011;38541;48.130;8.378;2024-01-30T01:33:41;1.95;;;1.83;;
52248;SDS011;38541;48.130;8.378;2024-01-30T01:36:07;2.00;;;1.90;;
52248;SDS011;38541;48.130;8.378;2024-01-30T01:38:34;2.55;;;2.30;;
52248;SDS011;38541;48.130;8.378;2024-01-30T01:41:00;2.13;;;1.92;;
52248;SDS011;38541;48.130;8.378;2024-01-30T01:43:27;2.00;;;1.80;;
52248;SDS011;38541;48.130;8.378;2024-01-30T01:45:53;1.55;;;1.45;;
52248;SDS011;38541;48.130;8.378;2024-01-30T01:48:20;1.90;;;1.55;;
52248;SDS011;38541;48.130;8.378;2024-01-30T01:50:47;2.20;;;2.08;;
52248;SDS011;38541;48.130;8.378;2024-01-30T01:53:14;1.60;;;1.50;;
52248;SDS011;38541;48.130;8.378;2024-01-30T01:55:41;1.80;;;1.70;;
52248;SDS011;38541;48.130;8.378;2024-01-30T01:58:08;1.85;;;1.70;;
52248;SDS011;38541;48.130;8.378;2024-01-30T02:00:36;1.83;;;1.73;;
52248;SDS011;38541;48.130;8.378;2024-01-30T02:03:06;2.15;;;1.88;;
52248;SDS011;38541;48.130;8.378;2024-01-30T02:05:34;1.80;;;1.70;;
52248;SDS011;38541;48.130;8.378;2024-01-30T02:08:01;1.80;;;1.70;;
52248;SDS011;38541;48.130;8.378;2024-01-30T02:10:28;1.90;;;1.80;;
52248;SDS011;38541;48.130;8.378;2024-01-30T02:12:54;2.75;;;1.90;;
52248;SDS011;38541;48.130;8.378;2024-01-30T02:15:21;1.65;;;1.55;;
52248;SDS011;38541;48.130;8.378;2024-01-30T02:17:47;2.08;;;1.98;;
52248;SDS011;38541;48.130;8.378;2024-01-30T02:20:14;1.77;;;1.67;;
52248;SDS011;38541;48.130;8.378;2024-01-30T02:22:40;1.83;;;1.73;;
52248;SDS011;38541;48.130;8.378;2024-01-30T02:25:08;1.90;;;1.60;;
52248;SDS011;38541;48.130;8.378;2024-01-30T02:27:35;1.77;;;1.65;;
52248;SDS011;38541;48.130;8.378;2024-01-30T02:30:02;1.73;;;1.63;;
52248;SDS011;38541;48.130;8.378;2024-01-30T02:32:29;1.75;;;1.65;;
52248;SDS011;38541;48.130;8.378;2024-01-30T02:34:55;1.95;;;1.77;;
52248;SDS011;38541;48.130;8.378;2024-01-30T02:37:22;1.75;;;1.65;;
52248;SDS011;38541;48.130;8.378;2024-01-30T02:39:48;1.60;;;1.50;;
52248;SDS011;38541;48.130;8.378;2024-01-30T02:42:15;1.70;;;1.60;;
52248;SDS011;38541;48.130;8.378;2024-01-30T02:44:41;1.60;;;1.50;;
52248;SDS011;38541;48.130;8.378;2024-01-30T02:47:08;1.60;;;1.50;;
52248;SDS011;38541;48.130;8.378;2024-01-30T02:49:34;1.80;;;1.70;;
52248;SDS011;38541;48.130;8.378;2024-01-30T02:52:01;2.20;;;2.00;;
52248;SDS011;38541;48.130;8.378;2024-01-30T02:54:27;1.73;;;1.63;;
52248;SDS011;38541;48.130;8.378;2024-01-30T02:56:54;1.80;;;1.70;;
52248;SDS011;38541;48.130;8.378;2024-01-30T02:59:20;1.77;;;1.67;;
52248;SDS011;38541;48.130;8.378;2024-01-30T03:01:47;1.73;;;1.63;;
52248;SDS011;38541;48.130;8.378;2024-01-30T03:04:14;1.85;;;1.73;;
52248;SDS011;38541;48.130;8.378;2024-01-30T03:06:47;1.70;;;1.60;;
52248;SDS011;38541;48.130;8.378;2024-01-30T03:09:16;1.60;;;1.50;;
52248;SDS011;38541;48.130;8.378;2024-01-30T03:11:43;2.38;;;1.88;;
52248;SDS011;38541;48.130;8.378;2024-01-30T03:14:10;1.70;;;1.60;;
52248;SDS011;38541;48.130;8.378;2024-01-30T03:16:37;1.75;;;1.65;;
52248;SDS011;38541;48.130;8.378;2024-01-30T03:19:05;2.00;;;1.80;;
52248;SDS011;38541;48.130;8.378;2024-01-30T03:21:34;1.52;;;1.40;;
52248;SDS011;38541;48.130;8.378;2024-01-30T03:24:00;1.70;;;1.60;;
52248;SDS011;38541;48.130;8.378;2024-01-30T03:26:27;1.85;;;1.60;;
52248;SDS011;38541;48.130;8.378;2024-01-30T03:28:53;1.70;;;1.60;;
52248;SDS011;38541;48.130;8.378;2024-01-30T03:31:20;2.55;;;1.90;;
52248;SDS011;38541;48.130;8.378;2024-01-30T03:33:47;2.38;;;2.17;;
52248;SDS011;38541;48.130;8.378;2024-01-30T03:36:15;1.88;;;1.60;;
52248;SDS011;38541;48.130;8.378;2024-01-30T03:38:42;2.03;;;1.83;;
52248;SDS011;38541;48.130;8.378;2024-01-30T03:41:09;2.33;;;2.08;;
52248;SDS011;38541;48.130;8.378;2024-01-30T03:43:36;2.75;;;2.30;;
52248;SDS011;38541;48.130;8.378;2024-01-30T03:46:03;3.47;;;2.33;;
52248;SDS011;38541;48.130;8.378;2024-01-30T03:48:29;2.38;;;2.13;;
52248;SDS011;38541;48.130;8.378;2024-01-30T03:50:56;2.10;;;1.90;;
52248;SDS011;38541;48.130;8.378;2024-01-30T03:53:22;2.72;;;1.75;;
52248;SDS011;38541;48.130;8.378;2024-01-30T03:55:49;2.00;;;1.90;;
52248;SDS011;38541;48.130;8.378;2024-01-30T03:58:16;1.83;;;1.73;;
52248;SDS011;38541;48.130;8.378;2024-01-30T04:00:42;1.85;;;1.70;;
52248;SDS011;38541;48.130;8.378;2024-01-30T04:03:09;1.85;;;1.75;;
52248;SDS011;38541;48.130;8.378;2024-01-30T04:05:35;1.83;;;1.73;;
52248;SDS011;38541;48.130;8.378;2024-01-30T04:08:02;2.30;;;1.80;;
52248;SDS011;38541;48.130;8.378;2024-01-30T04:10:29;2.35;;;1.83;;
52248;SDS011;38541;48.130;8.378;2024-01-30T04:12:55;1.67;;;1.40;;
52248;SDS011;38541;48.130;8.378;2024-01-30T04:15:22;2.60;;;1.95;;
52248;SDS011;38541;48.130;8.378;2024-01-30T04:17:48;2.45;;;1.80;;
52248;SDS011;38541;48.130;8.378;2024-01-30T04:20:15;1.98;;;1.88;;
52248;SDS011;38541;48.130;8.378;2024-01-30T04:22:44;1.58;;;1.48;;
52248;SDS011;38541;48.130;8.378;2024-01-30T04:25:12;2.03;;;1.92;;
52248;SDS011;38541;48.130;8.378;2024-01-30T04:27:39;1.73;;;1.63;;
52248;SDS011;38541;48.130;8.378;2024-01-30T04:30:06;2.03;;;1.67;;
52248;SDS011;38541;48.130;8.378;2024-01-30T04:32:33;1.70;;;1.60;;
52248;SDS011;38541;48.130;8.378;2024-01-30T04:35:00;1.95;;;1.85;;
52248;SDS011;38541;48.130;8.378;2024-01-30T04:37:26;1.77;;;1.67;;
52248;SDS011;38541;48.130;8.378;2024-01-30T04:39:53;1.88;;;1.75;;
52248;SDS011;38541;48.130;8.378;2024-01-30T04:42:20;1.92;;;1.70;;
52248;SDS011;38541;48.130;8.378;2024-01-30T04:44:47;2.00;;;1.90;;
52248;SDS011;38541;48.130;8.378;2024-01-30T04:47:13;2.63;;;2.40;;
52248;SDS011;38541;48.130;8.378;2024-01-30T04:49:39;2.08;;;1.98;;
52248;SDS011;38541;48.130;8.378;2024-01-30T04:52:06;1.88;;;1.58;;
52248;SDS011;38541;48.130;8.378;2024-01-30T04:54:34;1.77;;;1.67;;
52248;SDS011;38541;48.130;8.378;2024-01-30T04:57:03;3.65;;;2.38;;
52248;SDS011;38541;48.130;8.378;2024-01-30T04:59:31;1.90;;;1.65;;
52248;SDS011;38541;48.130;8.378;2024-01-30T05:01:58;5.20;;;2.03;;
52248;SDS011;38541;48.130;8.378;2024-01-30T05:04:25;2.58;;;1.90;;
52248;SDS011;38541;48.130;8.378;2024-01-30T05:06:51;3.67;;;2.67;;
52248;SDS011;38541;48.130;8.378;2024-01-30T05:09:18;2.42;;;1.65;;
52248;SDS011;38541;48.130;8.378;2024-01-30T05:11:45;1.80;;;1.70;;
52248;SDS011;38541;48.130;8.378;2024-01-30T05:14:11;2.55;;;1.55;;
52248;SDS011;38541;48.130;8.378;2024-01-30T05:16:38;3.42;;;1.77;;
52248;SDS011;38541;48.130;8.378;2024-01-30T05:19:04;3.28;;;3.05;;
52248;SDS011;38541;48.130;8.378;2024-01-30T05:21:31;2.70;;;2.50;;
52248;SDS011;38541;48.130;8.378;2024-01-30T05:23:58;2.95;;;2.00;;
52248;SDS011;38541;48.130;8.378;2024-01-30T05:26:24;2.20;;;2.10;;
52248;SDS011;38541;48.130;8.378;2024-01-30T05:28:51;2.03;;;1.83;;
52248;SDS011;38541;48.130;8.378;2024-01-30T05:31:17;3.42;;;2.20;;
52248;SDS011;38541;48.130;8.378;2024-01-30T05:33:44;1.95;;;1.77;;
52248;SDS011;38541;48.130;8.378;2024-01-30T05:36:12;2.58;;;2.38;;
52248;SDS011;38541;48.130;8.378;2024-01-30T05:38:39;2.30;;;2.08;;
52248;SDS011;38541;48.130;8.378;2024-01-30T05:41:06;2.30;;;2.10;;
52248;SDS011;38541;48.130;8.378;2024-01-30T05:43:32;2.80;;;1.90;;
52248;SDS011;38541;48.130;8.378;2024-01-30T05:45:59;2.33;;;2.13;;
52248;SDS011;38541;48.130;8.378;2024-01-30T05:48:26;2.63;;;2.22;;
52248;SDS011;38541;48.130;8.378;2024-01-30T05:50:52;2.55;;;2.35;;
52248;SDS011;38541;48.130;8.378;2024-01-30T05:53:19;3.03;;;2.60;;
52248;SDS011;38541;48.130;8.378;2024-01-30T05:55:45;2.75;;;2.40;;
52248;SDS011;38541;48.130;8.378;2024-01-30T05:58:12;2.58;;;2.38;;
52248;SDS011;38541;48.130;8.378;2024-01-30T06:00:38;3.83;;;2.38;;
52248;SDS011;38541;48.130;8.378;2024-01-30T06:03:05;2.13;;;1.92;;
52248;SDS011;38541;48.130;8.378;2024-01-30T06:05:32;7.13;;;2.63;;
52248;SDS011;38541;48.130;8.378;2024-01-30T06:07:58;3.53;;;2.45;;
52248;SDS011;38541;48.130;8.378;2024-01-30T06:10:25;2.60;;;2.40;;
52248;SDS011;38541;48.130;8.378;2024-01-30T06:12:53;2.58;;;2.30;;
52248;SDS011;38541;48.130;8.378;2024-01-30T06:15:19;3.30;;;2.47;;
52248;SDS011;38541;48.130;8.378;2024-01-30T06:17:46;2.47;;;2.28;;
52248;SDS011;38541;48.130;8.378;2024-01-30T06:20:13;3.42;;;2.50;;
52248;SDS011;38541;48.130;8.378;2024-01-30T06:22:40;2.95;;;1.90;;
52248;SDS011;38541;48.130;8.378;2024-01-30T06:25:06;2.55;;;2.35;;
52248;SDS011;38541;48.130;8.378;2024-01-30T06:27:33;2.88;;;2.45;;
52248;SDS011;38541;48.130;8.378;2024-01-30T06:30:00;2.72;;;2.35;;
52248;SDS011;38541;48.130;8.378;2024-01-30T06:32:27;2.78;;;2.50;;
52248;SDS011;38541;48.130;8.378;2024-01-30T06:34:55;2.67;;;2.47;;
52248;SDS011;38541;48.130;8.378;2024-01-30T06:37:21;3.33;;;3.03;;
52248;SDS011;38541;48.130;8.378;2024-01-30T06:39:48;4.05;;;2.70;;
52248;SDS011;38541;48.130;8.378;2024-01-30T06:42:14;3.40;;;3.10;;
52248;SDS011;38541;48.130;8.378;2024-01-30T06:44:42;3.83;;;3.38;;
52248;SDS011;38541;48.130;8.378;2024-01-30T06:47:08;3.88;;;3.30;;
52248;SDS011;38541;48.130;8.378;2024-01-30T06:49:35;7.50;;;6.75;;
52248;SDS011;38541;48.130;8.378;2024-01-30T06:52:05;5.20;;;4.70;;
52248;SDS011;38541;48.130;8.378;2024-01-30T06:54:32;6.72;;;4.70;;
52248;SDS011;38541;48.130;8.378;2024-01-30T06:56:59;4.82;;;4.43;;
52248;SDS011;38541;48.130;8.378;2024-01-30T06:59:26;5.05;;;4.38;;
52248;SDS011;38541;48.130;8.378;2024-01-30T07:01:52;3.60;;;3.30;;
52248;SDS011;38541;48.130;8.378;2024-01-30T07:04:19;3.95;;;3.60;;
52248;SDS011;38541;48.130;8.378;2024-01-30T07:06:46;4.20;;;3.50;;
52248;SDS011;38541;48.130;8.378;2024-01-30T07:09:12;5.00;;;3.75;;
52248;SDS011;38541;48.130;8.378;2024-01-30T07:11:40;3.60;;;3.30;;
52248;SDS011;38541;48.130;8.378;2024-01-30T07:14:07;6.10;;;4.07;;
52248;SDS011;38541;48.130;8.378;2024-01-30T07:16:35;6.88;;;5.90;;
52248;SDS011;38541;48.130;8.378;2024-01-30T07:19:02;5.10;;;4.60;;
52248;SDS011;38541;48.130;8.378;2024-01-30T07:21:29;6.65;;;4.55;;
52248;SDS011;38541;48.130;8.378;2024-01-30T07:23:55;3.47;;;2.97;;
52248;SDS011;38541;48.130;8.378;2024-01-30T07:26:22;5.53;;;5.05;;
52248;SDS011;38541;48.130;8.378;2024-01-30T07:28:49;3.85;;;3.17;;
52248;SDS011;38541;48.130;8.378;2024-01-30T07:31:16;3.20;;;2.90;;
52248;SDS011;38541;48.130;8.378;2024-01-30T07:33:43;4.32;;;2.90;;
52248;SDS011;38541;48.130;8.378;2024-01-30T07:36:09;3.15;;;2.85;;
52248;SDS011;38541;48.130;8.378;2024-01-30T07:38:36;3.35;;;3.05;;
52248;SDS011;38541;48.130;8.378;2024-01-30T07:41:03;4.28;;;3.88;;
52248;SDS011;38541;48.130;8.378;2024-01-30T07:43:30;3.08;;;2.78;;
52248;SDS011;38541;48.130;8.378;2024-01-30T07:45:56;2.85;;;2.53;;
52248;SDS011;38541;48.130;8.378;2024-01-30T07:48:23;4.63;;;3.50;;
52248;SDS011;38541;48.130;8.378;2024-01-30T07:50:49;3.17;;;2.88;;
52248;SDS011;38541;48.130;8.378;2024-01-30T07:53:16;3.10;;;2.80;;
52248;SDS011;38541;48.130;8.378;2024-01-30T07:55:42;2.92;;;2.63;;
52248;SDS011;38541;48.130;8.378;2024-01-30T07:58:12;2.38;;;2.17;;
52248;SDS011;38541;48.130;8.378;2024-01-30T08:00:39;3.20;;;2.90;;
52248;SDS011;38541;48.130;8.378;2024-01-30T08:03:05;2.75;;;2.45;;
52248;SDS011;38541;48.130;8.378;2024-01-30T08:05:32;3.05;;;2.80;;
52248;SDS011;38541;48.130;8.378;2024-01-30T08:07:59;2.47;;;2.28;;
52248;SDS011;38541;48.130;8.378;2024-01-30T08:10:25;2.55;;;2.35;;
52248;SDS011;38541;48.130;8.378;2024-01-30T08:12:52;2.75;;;2.55;;
52248;SDS011;38541;48.130;8.378;2024-01-30T08:15:18;1.85;;;1.75;;
52248;SDS011;38541;48.130;8.378;2024-01-30T08:17:45;2.50;;;2.30;;
52248;SDS011;38541;48.130;8.378;2024-01-30T08:20:11;2.47;;;2.20;;
52248;SDS011;38541;48.130;8.378;2024-01-30T08:22:38;2.08;;;1.88;;
52248;SDS011;38541;48.130;8.378;2024-01-30T08:25:08;2.10;;;1.90;;
52248;SDS011;38541;48.130;8.378;2024-01-30T08:27:36;2.75;;;1.70;;
52248;SDS011;38541;48.130;8.378;2024-01-30T08:30:05;1.88;;;1.77;;
52248;SDS011;38541;48.130;8.378;2024-01-30T08:32:33;1.52;;;1.42;;
52248;SDS011;38541;48.130;8.378;2024-01-30T08:35:00;1.48;;;1.38;;
52248;SDS011;38541;48.130;8.378;2024-01-30T08:37:30;1.70;;;1.60;;
52248;SDS011;38541;48.130;8.378;2024-01-30T08:39:56;2.10;;;1.80;;
52248;SDS011;38541;48.130;8.378;2024-01-30T08:42:23;1.80;;;1.70;;
52248;SDS011;38541;48.130;8.378;2024-01-30T08:44:49;3.83;;;2.55;;
52248;SDS011;38541;48.130;8.378;2024-01-30T08:47:17;2.83;;;1.85;;
52248;SDS011;38541;48.130;8.378;2024-01-30T08:49:45;1.63;;;1.52;;
52248;SDS011;38541;48.130;8.378;2024-01-30T08:52:11;1.73;;;1.63;;
52248;SDS011;38541;48.130;8.378;2024-01-30T08:54:38;2.00;;;1.60;;
52248;SDS011;38541;48.130;8.378;2024-01-30T08:57:04;1.42;;;1.33;;
52248;SDS011;38541;48.130;8.378;2024-01-30T08:59:31;1.50;;;1.40;;
52248;SDS011;38541;48.130;8.378;2024-01-30T09:01:58;1.65;;;1.50;;
52248;SDS011;38541;48.130;8.378;2024-01-30T09:04:37;2.15;;;1.73;;
52248;SDS011;38541;48.130;8.378;2024-01-30T09:07:04;1.58;;;1.48;;
52248;SDS011;38541;48.130;8.378;2024-01-30T09:09:35;1.58;;;1.48;;
52248;SDS011;38541;48.130;8.378;2024-01-30T09:12:03;1.60;;;1.50;;
52248;SDS011;38541;48.130;8.378;2024-01-30T09:14:33;2.25;;;1.58;;
52248;SDS011;38541;48.130;8.378;2024-01-30T09:16:59;2.40;;;1.42;;
52248;SDS011;38541;48.130;8.378;2024-01-30T09:19:26;1.77;;;1.63;;
52248;SDS011;38541;48.130;8.378;2024-01-30T09:21:53;3.38;;;1.98;;
52248;SDS011;38541;48.130;8.378;2024-01-30T09:24:19;3.83;;;1.90;;
52248;SDS011;38541;48.130;8.378;2024-01-30T09:26:46;2.92;;;1.70;;
52248;SDS011;38541;48.130;8.378;2024-01-30T09:29:12;3.28;;;1.75;;
52248;SDS011;38541;48.130;8.378;2024-01-30T09:31:39;3.78;;;1.58;;
52248;SDS011;38541;48.130;8.378;2024-01-30T09:34:05;2.35;;;1.70;;
52248;SDS011;38541;48.130;8.378;2024-01-30T09:36:32;3.28;;;1.70;;
52248;SDS011;38541;48.130;8.378;2024-01-30T09:38:59;2.05;;;1.67;;
52248;SDS011;38541;48.130;8.378;2024-01-30T09:41:26;1.85;;;1.45;;
52248;SDS011;38541;48.130;8.378;2024-01-30T09:43:53;1.50;;;1.40;;
52248;SDS011;38541;48.130;8.378;2024-01-30T09:46:22;1.77;;;1.60;;
52248;SDS011;38541;48.130;8.378;2024-01-30T09:48:54;1.55;;;1.17;;
52248;SDS011;38541;48.130;8.378;2024-01-30T09:51:22;1.10;;;1.10;;
52248;SDS011;38541;48.130;8.378;2024-01-30T09:53:48;2.83;;;1.60;;
52248;SDS011;38541;48.130;8.378;2024-01-30T09:56:15;1.83;;;1.65;;
52248;SDS011;38541;48.130;8.378;2024-01-30T09:58:43;1.38;;;1.20;;
52248;SDS011;38541;48.130;8.378;2024-01-30T10:01:09;1.40;;;1.30;;
52248;SDS011;38541;48.130;8.378;2024-01-30T10:03:36;1.17;;;1.17;;
52248;SDS011;38541;48.130;8.378;2024-01-30T10:06:06;1.02;;;0.93;;
52248;SDS011;38541;48.130;8.378;2024-01-30T10:08:34;2.22;;;1.50;;
52248;SDS011;38541;48.130;8.378;2024-01-30T10:11:00;1.50;;;1.27;;
52248;SDS011;38541;48.130;8.378;2024-01-30T10:13:28;1.50;;;1.40;;
52248;SDS011;38541;48.130;8.378;2024-01-30T10:15:54;3.50;;;1.30;;
52248;SDS011;38541;48.130;8.378;2024-01-30T10:18:24;1.27;;;1.17;;
52248;SDS011;38541;48.130;8.378;2024-01-30T10:20:51;1.30;;;1.20;;
52248;SDS011;38541;48.130;8.378;2024-01-30T10:23:18;1.40;;;1.30;;
52248;SDS011;38541;48.130;8.378;2024-01-30T10:25:45;2.15;;;1.40;;
52248;SDS011;38541;48.130;8.378;2024-01-30T10:28:12;1.90;;;1.55;;
52248;SDS011;38541;48.130;8.378;2024-01-30T10:30:39;4.13;;;1.55;;
52248;SDS011;38541;48.130;8.378;2024-01-30T10:33:05;4.22;;;1.45;;
52248;SDS011;38541;48.130;8.378;2024-01-30T10:35:32;1.33;;;1.23;;
52248;SDS011;38541;48.130;8.378;2024-01-30T10:38:01;3.05;;;1.90;;
52248;SDS011;38541;48.130;8.378;2024-01-30T10:40:29;1.80;;;1.35;;
52248;SDS011;38541;48.130;8.378;2024-01-30T10:42:56;1.70;;;1.48;;
52248;SDS011;38541;48.130;8.378;2024-01-30T10:45:23;0.90;;;0.90;;
52248;SDS011;38541;48.130;8.378;2024-01-30T10:47:54;1.08;;;1.08;;
52248;SDS011;38541;48.130;8.378;2024-01-30T10:50:24;1.30;;;1.20;;
52248;SDS011;38541;48.130;8.378;2024-01-30T10:52:51;1.20;;;1.10;;
52248;SDS011;38541;48.130;8.378;2024-01-30T10:55:18;1.13;;;1.02;;
52248;SDS011;38541;48.130;8.378;2024-01-30T10:57:47;1.08;;;1.08;;
52248;SDS011;38541;48.130;8.378;2024-01-30T11:00:14;4.25;;;1.63;;
52248;SDS011;38541;48.130;8.378;2024-01-30T11:02:45;4.00;;;1.90;;
52248;SDS011;38541;48.130;8.378;2024-01-30T11:05:13;1.98;;;1.40;;
52248;SDS011;38541;48.130;8.378;2024-01-30T11:07:42;1.17;;;1.10;;
52248;SDS011;38541;48.130;8.378;2024-01-30T11:10:09;2.65;;;2.00;;
52248;SDS011;38541;48.130;8.378;2024-01-30T11:12:39;3.72;;;2.15;;
52248;SDS011;38541;48.130;8.378;2024-01-30T11:15:14;3.78;;;2.13;;
52248;SDS011;38541;48.130;8.378;2024-01-30T11:17:45;3.78;;;1.92;;
52248;SDS011;38541;48.130;8.378;2024-01-30T11:20:27;3.53;;;1.40;;
52248;SDS011;38541;48.130;8.378;2024-01-30T11:22:57;3.95;;;1.50;;
52248;SDS011;38541;48.130;8.378;2024-01-30T11:25:25;2.97;;;1.80;;
52248;SDS011;38541;48.130;8.378;2024-01-30T11:27:54;2.20;;;1.73;;
52248;SDS011;38541;48.130;8.378;2024-01-30T11:30:25;4.78;;;2.20;;
52248;SDS011;38541;48.130;8.378;2024-01-30T11:37:55;2.13;;;1.65;;
52248;SDS011;38541;48.130;8.378;2024-01-30T11:40:25;2.67;;;1.75;;
52248;SDS011;38541;48.130;8.378;2024-01-30T11:42:54;12.02;;;3.60;;
52248;SDS011;38541;48.130;8.378;2024-01-30T11:45:22;1.70;;;1.60;;
52248;SDS011;38541;48.130;8.378;2024-01-30T11:47:48;7.32;;;2.75;;
52248;SDS011;38541;48.130;8.378;2024-01-30T11:50:15;2.20;;;1.50;;
52248;SDS011;38541;48.130;8.378;2024-01-30T11:52:42;3.40;;;1.77;;
52248;SDS011;38541;48.130;8.378;2024-01-30T11:55:09;1.50;;;1.40;;
52248;SDS011;38541;48.130;8.378;2024-01-30T11:57:38;2.63;;;1.70;;
52248;SDS011;38541;48.130;8.378;2024-01-30T12:00:05;5.28;;;2.10;;
52248;SDS011;38541;48.130;8.378;2024-01-30T12:02:37;2.83;;;2.13;;
52248;SDS011;38541;48.130;8.378;2024-01-30T12:05:04;5.32;;;2.53;;
52248;SDS011;38541;48.130;8.378;2024-01-30T12:07:31;1.98;;;1.60;;
52248;SDS011;38541;48.130;8.378;2024-01-30T12:09:58;4.40;;;2.17;;
52248;SDS011;38541;48.130;8.378;2024-01-30T12:12:26;1.35;;;1.25;;
52248;SDS011;38541;48.130;8.378;2024-01-30T12:14:53;2.30;;;2.10;;
52248;SDS011;38541;48.130;8.378;2024-01-30T12:17:27;3.47;;;2.38;;
52248;SDS011;38541;48.130;8.378;2024-01-30T12:22:37;4.55;;;2.20;;
52248;SDS011;38541;48.130;8.378;2024-01-30T12:25:08;1.63;;;1.50;;
52248;SDS011;38541;48.130;8.378;2024-01-30T12:27:43;1.92;;;1.73;;
52248;SDS011;38541;48.130;8.378;2024-01-30T12:30:14;2.08;;;1.70;;
52248;SDS011;38541;48.130;8.378;2024-01-30T12:32:41;1.63;;;1.52;;
52248;SDS011;38541;48.130;8.378;2024-01-30T12:35:10;2.63;;;1.60;;
52248;SDS011;38541;48.130;8.378;2024-01-30T12:37:38;1.60;;;1.50;;
52248;SDS011;38541;48.130;8.378;2024-01-30T12:40:05;2.28;;;1.92;;
52248;SDS011;38541;48.130;8.378;2024-01-30T12:42:33;2.45;;;1.75;;
52248;SDS011;38541;48.130;8.378;2024-01-30T12:45:01;3.00;;;1.80;;
52248;SDS011;38541;48.130;8.378;2024-01-30T12:47:29;2.70;;;2.35;;
52248;SDS011;38541;48.130;8.378;2024-01-30T12:49:56;1.73;;;1.63;;
52248;SDS011;38541;48.130;8.378;2024-01-30T12:52:23;2.03;;;1.48;;
52248;SDS011;38541;48.130;8.378;2024-01-30T12:54:50;3.50;;;1.80;;
52248;SDS011;38541;48.130;8.378;2024-01-30T12:57:17;5.00;;;2.15;;
52248;SDS011;38541;48.130;8.378;2024-01-30T12:59:44;2.72;;;2.08;;
52248;SDS011;38541;48.130;8.378;2024-01-30T13:02:12;3.30;;;1.92;;
52248;SDS011;38541;48.130;8.378;2024-01-30T13:04:39;2.72;;;1.85;;
52248;SDS011;38541;48.130;8.378;2024-01-30T13:07:06;2.75;;;2.15;;
52248;SDS011;38541;48.130;8.378;2024-01-30T13:09:33;4.88;;;1.88;;
52248;SDS011;38541;48.130;8.378;2024-01-30T13:12:00;4.00;;;2.58;;
52248;SDS011;38541;48.130;8.378;2024-01-30T13:14:26;2.38;;;1.80;;
52248;SDS011;38541;48.130;8.378;2024-01-30T13:16:53;1.83;;;1.73;;
52248;SDS011;38541;48.130;8.378;2024-01-30T13:19:19;1.85;;;1.75;;
52248;SDS011;38541;48.130;8.378;2024-01-30T13:21:46;2.05;;;1.85;;
52248;SDS011;38541;48.130;8.378;2024-01-30T13:24:14;2.55;;;2.05;;
52248;SDS011;38541;48.130;8.378;2024-01-30T13:26:42;3.85;;;1.88;;
52248;SDS011;38541;48.130;8.378;2024-01-30T13:29:09;4.47;;;2.05;;
52248;SDS011;38541;48.130;8.378;2024-01-30T13:31:35;1.98;;;1.85;;
52248;SDS011;38541;48.130;8.378;2024-01-30T13:34:02;2.60;;;1.98;;
52248;SDS011;38541;48.130;8.378;2024-01-30T13:36:33;2.08;;;1.63;;
52248;SDS011;38541;48.130;8.378;2024-01-30T13:39:00;2.33;;;1.88;;
52248;SDS011;38541;48.130;8.378;2024-01-30T13:41:26;2.42;;;1.90;;
52248;SDS011;38541;48.130;8.378;2024-01-30T13:43:53;3.33;;;2.00;;
52248;SDS011;38541;48.130;8.378;2024-01-30T13:46:20;3.03;;;2.00;;
52248;SDS011;38541;48.130;8.378;2024-01-30T13:48:46;2.72;;;2.33;;
52248;SDS011;38541;48.130;8.378;2024-01-30T13:51:13;2.97;;;2.17;;
52248;SDS011;38541;48.130;8.378;2024-01-30T13:53:40;3.25;;;2.88;;
52248;SDS011;38541;48.130;8.378;2024-01-30T13:56:07;3.50;;;2.17;;
52248;SDS011;38541;48.130;8.378;2024-01-30T13:58:33;1.98;;;1.80;;
52248;SDS011;38541;48.130;8.378;2024-01-30T14:01:02;4.30;;;2.08;;
52248;SDS011;38541;48.130;8.378;2024-01-30T14:03:29;2.22;;;1.80;;
52248;SDS011;38541;48.130;8.378;2024-01-30T14:05:56;2.28;;;1.67;;
52248;SDS011;38541;48.130;8.378;2024-01-30T14:08:23;2.55;;;1.98;;
52248;SDS011;38541;48.130;8.378;2024-01-30T14:10:53;1.95;;;1.85;;
52248;SDS011;38541;48.130;8.378;2024-01-30T14:13:19;2.00;;;1.80;;
52248;SDS011;38541;48.130;8.378;2024-01-30T14:15:46;2.75;;;2.17;;
52248;SDS011;38541;48.130;8.378;2024-01-30T14:18:12;2.35;;;2.15;;
52248;SDS011;38541;48.130;8.378;2024-01-30T14:20:39;2.60;;;1.70;;
52248;SDS011;38541;48.130;8.378;2024-01-30T14:23:06;2.60;;;1.75;;
52248;SDS011;38541;48.130;8.378;2024-01-30T14:25:33;2.10;;;1.90;;
52248;SDS011;38541;48.130;8.378;2024-01-30T14:27:59;3.17;;;2.00;;
52248;SDS011;38541;48.130;8.378;2024-01-30T14:30:26;2.90;;;2.10;;
52248;SDS011;38541;48.130;8.378;2024-01-30T14:32:52;4.47;;;2.53;;
52248;SDS011;38541;48.130;8.378;2024-01-30T14:35:19;4.53;;;2.25;;
52248;SDS011;38541;48.130;8.378;2024-01-30T14:37:46;6.82;;;2.13;;
52248;SDS011;38541;48.130;8.378;2024-01-30T14:40:13;2.75;;;2.45;;
52248;SDS011;38541;48.130;8.378;2024-01-30T14:42:39;3.33;;;2.13;;
52248;SDS011;38541;48.130;8.378;2024-01-30T14:45:07;5.32;;;2.30;;
52248;SDS011;38541;48.130;8.378;2024-01-30T14:47:34;6.30;;;2.90;;
52248;SDS011;38541;48.130;8.378;2024-01-30T14:50:02;6.70;;;3.40;;
52248;SDS011;38541;48.130;8.378;2024-01-30T14:52:33;9.45;;;4.03;;
52248;SDS011;38541;48.130;8.378;2024-01-30T14:54:59;6.25;;;3.75;;